createdAt,value
2022-08-05T00:02:21.726Z,6.00
2022-08-05T00:04:55.538Z,5.20
2022-08-05T00:07:59.451Z,8.52
2022-08-05T00:10:11.746Z,8.55
2022-08-05T00:12:55.992Z,7.72
2022-08-05T00:15:55.850Z,6.05
2022-08-05T00:18:15.082Z,5.37
2022-08-05T00:20:49.895Z,7.00
2022-08-05T00:23:44.522Z,7.13
2022-08-05T00:26:05.903Z,7.90
2022-08-05T00:28:33.114Z,6.50
2022-08-05T00:31:04.219Z,5.60
2022-08-05T00:34:53.820Z,6.60
2022-08-05T00:37:11.754Z,6.75
2022-08-05T00:39:13.644Z,7.18
2022-08-05T00:41:51.889Z,6.57
2022-08-05T00:44:30.937Z,9.93
2022-08-05T00:47:04.153Z,8.35
2022-08-05T00:49:51.080Z,5.57
2022-08-05T00:52:28.405Z,6.22
2022-08-05T00:54:56.297Z,8.80
2022-08-05T00:57:25.426Z,7.17
2022-08-05T01:00:07.317Z,6.20
2022-08-05T01:02:38.419Z,6.70
2022-08-05T01:05:09.983Z,7.65
2022-08-05T01:07:37.479Z,7.40
2022-08-05T01:10:31.683Z,11.37
2022-08-05T01:13:13.096Z,7.03
2022-08-05T01:15:47.843Z,6.43
2022-08-05T01:18:23.950Z,7.38
2022-08-05T01:21:00.447Z,8.50
2022-08-05T01:23:39.645Z,5.87
2022-08-05T01:26:17.899Z,7.55
2022-08-05T01:29:03.487Z,9.45
2022-08-05T01:31:53.144Z,6.05
2022-08-05T01:34:26.845Z,6.50
2022-08-05T01:37:02.937Z,6.93
2022-08-05T01:39:46.471Z,8.50
2022-08-05T01:42:19.415Z,7.97
2022-08-05T01:44:54.136Z,7.38
2022-08-05T01:47:24.248Z,9.75
2022-08-05T01:50:01.977Z,8.60
2022-08-05T01:52:32.628Z,7.32
2022-08-05T01:55:04.394Z,7.38
2022-08-05T01:58:10.465Z,7.93
2022-08-05T02:00:30.524Z,8.38
2022-08-05T02:03:04.093Z,9.30
2022-08-05T02:05:35.920Z,6.57
2022-08-05T02:08:05.379Z,8.98
2022-08-05T02:10:52.407Z,10.15
2022-08-05T02:13:53.403Z,9.80
2022-08-05T02:16:25.304Z,7.40
2022-08-05T02:19:02.835Z,10.27
2022-08-05T02:21:43.141Z,8.30
2022-08-05T02:24:18.519Z,7.35
2022-08-05T02:26:51.918Z,7.45
2022-08-05T02:29:26.031Z,8.43
2022-08-05T02:32:11.800Z,7.93
2022-08-05T02:34:54.703Z,8.13
2022-08-05T02:37:24.056Z,11.55
2022-08-05T02:39:53.602Z,7.70
2022-08-05T02:42:27.681Z,11.47
2022-08-05T02:45:01.427Z,7.40
2022-08-05T02:48:06.918Z,8.00
2022-08-05T02:50:19.151Z,7.50
2022-08-05T02:52:47.294Z,7.78
2022-08-05T02:55:17.572Z,7.50
2022-08-05T03:00:55.977Z,8.45
2022-08-05T03:03:23.923Z,8.63
2022-08-05T03:06:56.735Z,8.60
2022-08-05T03:08:42.817Z,8.03
2022-08-05T03:11:54.521Z,7.75
2022-08-05T03:14:13.539Z,7.90
2022-08-05T03:16:41.103Z,10.65
2022-08-05T03:19:16.919Z,7.38
2022-08-05T03:21:48.691Z,7.70
2022-08-05T03:24:27.523Z,8.25
2022-08-05T03:26:58.973Z,7.38
2022-08-05T03:29:45.635Z,8.57
2022-08-05T03:32:19.480Z,7.50
2022-08-05T03:34:49.607Z,10.00
2022-08-05T03:37:20.973Z,8.48
2022-08-05T03:40:01.687Z,8.82
2022-08-05T03:42:41.578Z,7.18
2022-08-05T03:45:22.727Z,9.57
2022-08-05T03:47:51.539Z,8.67
2022-08-05T03:50:19.298Z,7.95
2022-08-05T03:55:34.740Z,7.47
2022-08-05T03:56:10.168Z,8.38
2022-08-05T03:58:42.681Z,8.82
2022-08-05T04:01:14.705Z,7.50
2022-08-05T04:04:09.781Z,6.70
2022-08-05T04:06:35.205Z,10.55
2022-08-05T04:09:06.023Z,9.32
2022-08-05T04:11:50.801Z,8.20
2022-08-05T04:14:30.437Z,8.83
2022-08-05T04:17:00.334Z,7.45
2022-08-05T04:19:29.023Z,7.63
2022-08-05T04:22:08.320Z,13.25
2022-08-05T04:24:43.885Z,12.95
2022-08-05T04:27:13.556Z,20.07
2022-08-05T04:29:41.511Z,18.80
2022-08-05T04:32:09.752Z,18.77
2022-08-05T04:34:43.117Z,18.08
2022-08-05T04:37:10.953Z,16.52
2022-08-05T04:39:39.147Z,15.73
2022-08-05T04:42:07.747Z,12.75
2022-08-05T04:44:36.522Z,11.73
2022-08-05T04:47:09.618Z,13.15
2022-08-05T04:50:01.402Z,13.10
2022-08-05T04:52:27.689Z,14.60
2022-08-05T04:54:57.405Z,10.50
2022-08-05T04:57:28.655Z,10.20
2022-08-05T04:59:58.504Z,13.55
2022-08-05T05:02:36.432Z,13.27
2022-08-05T05:05:26.309Z,10.30
2022-08-05T05:07:56.430Z,10.55
2022-08-05T05:10:29.719Z,13.68
2022-08-05T05:12:57.659Z,13.18
2022-08-05T05:15:57.832Z,13.68
2022-08-05T05:21:06.313Z,11.60
2022-08-05T05:24:02.015Z,15.95
2022-08-05T05:26:28.299Z,11.18
2022-08-05T05:29:02.762Z,16.55
2022-08-05T05:31:41.797Z,13.63
2022-08-05T05:34:13.801Z,10.65
2022-08-05T05:36:42.702Z,15.02
2022-08-05T05:39:13.234Z,13.05
2022-08-05T05:41:41.958Z,8.75
2022-08-05T05:44:36.871Z,11.70
2022-08-05T05:46:57.906Z,11.07
2022-08-05T05:49:25.513Z,13.48
2022-08-05T05:51:53.877Z,11.73
2022-08-05T05:57:19.005Z,10.77
2022-08-05T05:59:48.807Z,10.05
2022-08-05T06:02:16.339Z,9.10
2022-08-05T06:04:44.265Z,12.48
2022-08-05T06:07:16.607Z,11.18
2022-08-05T06:10:01.623Z,10.83
2022-08-05T06:12:32.057Z,8.75
2022-08-05T06:15:01.658Z,9.52
2022-08-05T06:17:31.107Z,11.88
2022-08-05T06:20:21.377Z,15.25
2022-08-05T06:22:49.067Z,8.40
2022-08-05T06:25:59.016Z,11.38
2022-08-05T06:28:11.762Z,11.45
2022-08-05T06:30:48.172Z,10.30
2022-08-05T06:33:19.203Z,9.20
2022-08-05T06:36:03.686Z,13.17
2022-08-05T06:38:36.013Z,11.38
2022-08-05T06:41:07.949Z,12.48
2022-08-05T06:43:57.478Z,9.18
2022-08-05T06:46:29.715Z,11.57
2022-08-05T06:48:59.256Z,10.80
2022-08-05T06:51:31.029Z,10.73
2022-08-05T06:54:01.926Z,12.10
2022-08-05T06:56:30.326Z,10.00
2022-08-05T06:59:08.442Z,13.50
2022-08-05T07:01:36.705Z,10.33
2022-08-05T07:04:04.089Z,9.75
2022-08-05T07:06:32.103Z,11.63
2022-08-05T07:09:04.271Z,10.57
2022-08-05T07:11:37.086Z,9.13
2022-08-05T07:14:29.739Z,10.17
2022-08-05T07:17:59.946Z,8.63
2022-08-05T07:22:41.983Z,9.60
2022-08-05T07:25:54.332Z,8.48
2022-08-05T07:28:04.244Z,8.53
2022-08-05T07:30:39.249Z,9.93
2022-08-05T07:33:16.566Z,7.72
2022-08-05T07:36:03.941Z,7.65
2022-08-05T07:38:42.785Z,9.40
2022-08-05T07:41:35.183Z,8.27
2022-08-05T07:44:05.116Z,7.13
2022-08-05T07:46:33.790Z,7.78
2022-08-05T07:49:05.997Z,7.78
2022-08-05T07:51:37.240Z,9.13
2022-08-05T07:54:33.563Z,8.70
2022-08-05T07:57:22.579Z,7.28
2022-08-05T07:59:49.721Z,8.35
2022-08-05T08:02:18.065Z,7.93
2022-08-05T08:04:47.455Z,8.25
2022-08-05T08:07:15.099Z,7.37
2022-08-05T08:09:43.384Z,8.15
2022-08-05T08:12:33.472Z,8.50
2022-08-05T08:15:02.651Z,9.18
2022-08-05T08:17:32.536Z,9.18
2022-08-05T08:20:21.697Z,7.97
2022-08-05T08:22:59.413Z,8.63
2022-08-05T08:25:59.140Z,8.93
2022-08-05T08:28:37.016Z,8.23
2022-08-05T08:31:17.620Z,10.10
2022-08-05T08:33:45.972Z,9.33
2022-08-05T08:36:39.284Z,9.32
2022-08-05T08:39:15.679Z,8.65
2022-08-05T08:42:00.010Z,8.63
2022-08-05T08:45:20.945Z,9.20
2022-08-05T08:48:06.805Z,8.50
2022-08-05T08:50:29.877Z,8.68
2022-08-05T08:53:08.206Z,12.32
2022-08-05T08:56:03.384Z,8.23
2022-08-05T08:58:43.981Z,8.73
2022-08-05T09:01:18.126Z,9.43
2022-08-05T09:03:48.187Z,8.90
2022-08-05T09:06:21.433Z,8.88
2022-08-05T09:08:51.565Z,8.50
2022-08-05T09:11:18.919Z,9.65
2022-08-05T09:14:54.087Z,9.23
2022-08-05T09:16:54.066Z,9.25
2022-08-05T09:19:21.519Z,8.95
2022-08-05T09:22:17.734Z,7.78
2022-08-05T09:24:44.869Z,7.15
2022-08-05T09:28:04.345Z,8.73
2022-08-05T09:30:19.217Z,6.00
2022-08-05T09:32:51.795Z,5.38
2022-08-05T09:35:27.241Z,5.63
2022-08-05T09:38:16.593Z,6.70
2022-08-05T09:40:52.678Z,5.37
2022-08-05T09:43:41.822Z,6.50
2022-08-05T09:46:30.150Z,6.50
2022-08-05T09:49:07.241Z,6.65
2022-08-05T09:51:38.218Z,5.10
2022-08-05T09:54:09.508Z,9.00
2022-08-05T09:56:38.812Z,6.68
2022-08-05T09:59:17.141Z,5.00
2022-08-05T10:01:46.534Z,4.95
2022-08-05T10:04:16.180Z,6.13
2022-08-05T10:06:59.609Z,4.90
2022-08-05T10:09:29.806Z,5.45
2022-08-05T10:12:30.088Z,5.80
2022-08-05T10:15:25.615Z,6.43
2022-08-05T10:18:14.654Z,5.45
2022-08-05T10:20:50.930Z,5.50
2022-08-05T10:23:55.418Z,5.20
2022-08-05T10:26:15.007Z,6.95
2022-08-05T10:28:45.097Z,6.38
2022-08-05T10:32:49.556Z,5.35
2022-08-05T10:34:03.887Z,5.50
2022-08-05T10:36:36.753Z,6.75
2022-08-05T10:39:25.027Z,5.72
2022-08-05T10:42:13.302Z,5.70
2022-08-05T10:44:45.826Z,8.07
2022-08-05T10:47:27.061Z,4.83
2022-08-05T10:50:31.834Z,7.43
2022-08-05T10:52:58.525Z,4.85
2022-08-05T10:55:27.385Z,7.65
2022-08-05T10:58:11.665Z,5.10
2022-08-05T11:00:47.357Z,5.67
2022-08-05T11:03:24.341Z,6.10
2022-08-05T11:06:15.407Z,5.43
2022-08-05T11:09:13.169Z,5.40
2022-08-05T11:11:53.591Z,5.20
2022-08-05T11:14:57.710Z,5.07
2022-08-05T11:18:00.250Z,6.80
2022-08-05T11:20:41.969Z,6.82
2022-08-05T11:24:02.832Z,5.45
2022-08-05T11:26:28.904Z,6.40
2022-08-05T11:29:12.699Z,5.63
2022-08-05T11:31:54.260Z,5.93
2022-08-05T11:34:51.739Z,6.22
2022-08-05T11:38:36.447Z,4.60
2022-08-05T11:41:34.526Z,5.70
2022-08-05T11:44:05.932Z,4.87
2022-08-05T11:47:09.615Z,6.03
2022-08-05T11:49:34.634Z,7.13
2022-08-05T11:52:11.460Z,7.43
2022-08-05T11:54:40.461Z,6.57
2022-08-05T11:57:24.455Z,5.27
2022-08-05T11:59:56.147Z,5.22
2022-08-05T12:02:33.177Z,4.90
2022-08-05T12:05:06.775Z,5.60
2022-08-05T12:08:07.462Z,5.10
2022-08-05T12:10:38.396Z,5.17
2022-08-05T12:13:27.755Z,5.28
2022-08-05T12:16:14.615Z,5.60
2022-08-05T12:18:48.961Z,5.57
2022-08-05T12:21:26.890Z,7.38
2022-08-05T12:24:04.620Z,6.37
2022-08-05T12:26:43.894Z,5.45
2022-08-05T12:29:17.945Z,8.23
2022-08-05T12:31:53.688Z,7.07
2022-08-05T12:34:25.767Z,6.70
2022-08-05T12:36:55.025Z,5.20
2022-08-05T12:39:34.646Z,6.60
2022-08-05T12:45:09.837Z,5.55
2022-08-05T12:47:37.964Z,5.97
2022-08-05T12:50:17.673Z,6.27
2022-08-05T12:52:59.697Z,5.78
2022-08-05T12:55:32.495Z,5.75
2022-08-05T12:58:49.408Z,5.43
2022-08-05T13:02:04.265Z,5.57
2022-08-05T13:06:29.242Z,5.00
2022-08-05T13:08:57.814Z,4.72
2022-08-05T13:12:01.731Z,5.28
2022-08-05T13:14:24.857Z,5.88
2022-08-05T13:17:31.516Z,5.53
2022-08-05T13:20:09.259Z,5.22
2022-08-05T13:22:40.678Z,5.80
2022-08-05T13:25:18.904Z,4.93
2022-08-05T13:27:53.094Z,6.50
2022-08-05T13:30:35.144Z,5.10
2022-08-05T13:33:03.808Z,5.15
2022-08-05T13:35:47.176Z,6.82
2022-08-05T13:38:30.669Z,5.78
2022-08-05T13:41:01.492Z,5.22
2022-08-05T13:46:50.714Z,6.80
2022-08-05T13:49:10.190Z,5.18
2022-08-05T13:51:40.874Z,5.45
2022-08-05T13:54:12.343Z,6.03
2022-08-05T13:56:51.482Z,5.00
2022-08-05T13:59:25.117Z,5.28
2022-08-05T14:01:58.190Z,7.45
2022-08-05T14:04:51.351Z,6.20
2022-08-05T14:07:55.766Z,7.28
2022-08-05T14:10:18.822Z,6.33
2022-08-05T14:12:48.447Z,6.85
2022-08-05T14:16:07.194Z,5.30
2022-08-05T14:18:04.436Z,4.97
2022-08-05T14:20:32.139Z,7.35
2022-08-05T14:22:59.970Z,6.10
2022-08-05T14:25:30.132Z,5.50
2022-08-05T14:27:58.398Z,5.95
2022-08-05T14:30:27.780Z,5.35
2022-08-05T14:32:56.897Z,5.50
2022-08-05T14:35:37.577Z,5.53
2022-08-05T14:38:27.650Z,5.88
2022-08-05T14:40:59.070Z,5.35
2022-08-05T14:43:59.722Z,6.55
2022-08-05T14:46:13.466Z,5.57
2022-08-05T14:48:40.678Z,5.50
2022-08-05T14:51:08.659Z,8.57
2022-08-05T14:53:44.540Z,7.25
2022-08-05T14:56:13.366Z,5.55
2022-08-05T14:58:47.901Z,6.40
2022-08-05T15:01:37.095Z,7.00
2022-08-05T15:04:11.524Z,6.53
2022-08-05T15:06:40.471Z,5.60
2022-08-05T15:09:07.791Z,5.00
2022-08-05T15:11:52.311Z,5.65
2022-08-05T15:14:34.719Z,5.90
2022-08-05T15:17:41.782Z,5.20
2022-08-05T15:19:57.004Z,6.07
2022-08-05T15:22:24.349Z,6.22
2022-08-05T15:24:55.816Z,5.10
2022-08-05T15:27:25.428Z,7.30
2022-08-05T15:29:54.259Z,4.80
2022-08-05T15:32:28.914Z,5.22
2022-08-05T15:34:57.046Z,6.38
2022-08-05T15:38:09.276Z,5.47
2022-08-05T15:41:03.017Z,5.93
2022-08-05T15:43:12.460Z,5.20
2022-08-05T15:45:45.497Z,5.57
2022-08-05T15:48:14.114Z,8.55
2022-08-05T15:50:43.591Z,6.03
2022-08-05T15:53:12.796Z,7.00
2022-08-05T15:56:04.172Z,5.18
2022-08-05T15:58:29.295Z,6.90
2022-08-05T16:01:11.726Z,6.32
2022-08-05T16:03:48.385Z,5.72
2022-08-05T16:06:19.864Z,5.90
2022-08-05T16:08:51.176Z,5.78
2022-08-05T16:11:42.587Z,5.43
2022-08-05T16:14:09.076Z,6.20
2022-08-05T16:16:36.519Z,5.90
2022-08-05T16:19:04.700Z,7.83
2022-08-05T16:21:59.371Z,5.95
2022-08-05T16:24:39.864Z,5.13
2022-08-05T16:27:09.825Z,5.25
2022-08-05T16:29:50.049Z,6.95
2022-08-05T16:32:23.346Z,5.67
2022-08-05T16:34:57.674Z,5.47
2022-08-05T16:38:02.364Z,6.53
2022-08-05T16:40:28.759Z,7.57
2022-08-05T16:42:56.705Z,6.10
2022-08-05T16:46:04.636Z,5.40
2022-08-05T16:48:11.072Z,5.85
2022-08-05T16:50:53.619Z,5.10
2022-08-05T16:53:22.465Z,4.63
2022-08-05T16:55:58.945Z,8.10
2022-08-05T16:58:26.705Z,5.43
2022-08-05T17:00:53.913Z,5.97
2022-08-05T17:03:22.126Z,8.20
2022-08-05T17:05:53.997Z,5.70
2022-08-05T17:08:36.072Z,5.22
2022-08-05T17:11:16.478Z,4.57
2022-08-05T17:13:45.626Z,7.47
2022-08-05T17:16:32.974Z,5.97
2022-08-05T17:19:00.594Z,6.40
2022-08-05T17:21:36.271Z,6.47
2022-08-05T17:24:19.581Z,5.83
2022-08-05T17:26:57.787Z,6.35
2022-08-05T17:29:39.977Z,7.85
2022-08-05T17:32:11.957Z,5.90
2022-08-05T17:34:49.139Z,6.53
2022-08-05T17:37:39.539Z,7.83
2022-08-05T17:40:10.374Z,5.55
2022-08-05T17:42:42.894Z,5.50
2022-08-05T17:45:21.049Z,5.45
2022-08-05T17:47:54.643Z,6.22
2022-08-05T17:50:28.571Z,5.43
2022-08-05T17:52:59.430Z,6.35
2022-08-05T17:55:37.437Z,6.63
2022-08-05T17:58:09.884Z,7.00
2022-08-05T18:00:44.513Z,4.90
2022-08-05T18:03:28.180Z,6.67
2022-08-05T18:06:04.593Z,6.70
2022-08-05T18:08:33.542Z,6.15
2022-08-05T18:11:03.191Z,6.75
2022-08-05T18:13:36.870Z,7.40
2022-08-05T18:16:13.337Z,5.27
2022-08-05T18:18:41.833Z,6.82
2022-08-05T18:21:20.089Z,6.05
2022-08-05T18:23:52.340Z,9.98
2022-08-05T18:26:29.387Z,6.57
2022-08-05T18:28:59.676Z,5.83
2022-08-05T18:31:33.926Z,8.98
2022-08-05T18:34:05.971Z,7.25
2022-08-05T18:36:35.431Z,6.78
2022-08-05T18:39:09.973Z,8.73
2022-08-05T18:42:02.206Z,8.77
2022-08-05T18:44:35.569Z,7.63
2022-08-05T18:47:16.280Z,10.25
2022-08-05T18:50:01.671Z,13.02
2022-08-05T18:52:33.620Z,16.50
2022-08-05T18:55:06.238Z,14.00
2022-08-05T18:57:50.053Z,9.30
2022-08-05T19:00:28.736Z,7.30
2022-08-05T19:03:04.142Z,12.77
2022-08-05T19:06:13.217Z,14.32
2022-08-05T19:08:21.900Z,11.43
2022-08-05T19:10:59.384Z,11.75
2022-08-05T19:13:27.083Z,14.20
2022-08-05T19:16:03.395Z,16.13
2022-08-05T19:18:31.770Z,11.13
2022-08-05T19:20:59.785Z,10.70
2022-08-05T19:24:05.635Z,11.05
2022-08-05T19:26:18.792Z,11.75
2022-08-05T19:28:46.201Z,8.65
2022-08-05T19:31:17.941Z,13.82
2022-08-05T19:33:48.435Z,10.40
2022-08-05T19:36:26.579Z,12.75
2022-08-05T19:38:58.789Z,13.05
2022-08-05T19:42:05.883Z,11.23
2022-08-05T19:44:15.621Z,11.48
2022-08-05T19:46:43.717Z,6.80
2022-08-05T19:49:12.463Z,12.10
2022-08-05T19:52:08.628Z,9.75
2022-08-05T19:54:34.240Z,7.95
2022-08-05T19:57:09.438Z,12.38
2022-08-05T19:59:56.394Z,6.57
2022-08-05T20:02:30.322Z,8.63
2022-08-05T20:04:59.724Z,10.50
2022-08-05T20:07:46.021Z,8.30
2022-08-05T20:10:17.084Z,11.43
2022-08-05T20:12:48.384Z,5.93
2022-08-05T20:15:48.468Z,7.30
2022-08-05T20:18:10.430Z,7.45
2022-08-05T20:20:55.323Z,6.18
2022-08-05T20:23:40.033Z,6.07
2022-08-05T20:26:16.485Z,5.20
2022-08-05T20:28:51.038Z,7.38
2022-08-05T20:31:21.407Z,5.82
2022-08-05T20:33:51.096Z,7.28
2022-08-05T20:36:19.117Z,7.25
2022-08-05T20:38:54.469Z,7.63
2022-08-05T20:41:43.233Z,8.52
2022-08-05T20:44:18.808Z,5.85
2022-08-05T20:46:48.097Z,6.90
2022-08-05T20:49:15.294Z,5.75
2022-08-05T20:51:53.368Z,7.13
2022-08-05T20:54:22.567Z,7.57
2022-08-05T20:56:52.993Z,6.03
2022-08-05T20:59:27.082Z,8.80
2022-08-05T21:02:07.682Z,5.30
2022-08-05T21:04:36.531Z,6.20
2022-08-05T21:07:05.068Z,8.23
2022-08-05T21:09:35.742Z,6.13
2022-08-05T21:12:07.339Z,7.00
2022-08-05T21:14:38.463Z,7.32
2022-08-05T21:17:06.257Z,7.33
2022-08-05T21:19:46.898Z,6.70
2022-08-05T21:22:23.166Z,11.25
2022-08-05T21:24:52.520Z,7.70
2022-08-05T21:27:27.093Z,8.23
2022-08-05T21:29:56.311Z,7.20
2022-08-05T21:32:27.935Z,8.20
2022-08-05T21:35:17.459Z,6.57
2022-08-05T21:37:52.942Z,8.40
2022-08-05T21:40:24.795Z,6.60
2022-08-05T21:42:53.583Z,7.40
2022-08-05T21:45:24.880Z,6.72
2022-08-05T21:48:09.611Z,8.38
2022-08-05T21:50:37.390Z,7.78
2022-08-05T21:53:17.399Z,5.70
2022-08-05T21:56:06.211Z,7.13
2022-08-05T21:58:32.520Z,7.93
2022-08-05T22:01:00.610Z,8.77
2022-08-05T22:03:52.035Z,6.72
2022-08-05T22:06:22.770Z,8.95
2022-08-05T22:08:52.006Z,8.00
2022-08-05T22:11:34.468Z,6.70
2022-08-05T22:14:05.760Z,8.13
2022-08-05T22:16:56.812Z,7.93
2022-08-05T22:20:00.166Z,7.88
2022-08-05T22:22:15.554Z,7.63
2022-08-05T22:25:01.842Z,8.18
2022-08-05T22:28:10.258Z,7.50
2022-08-05T22:30:35.399Z,7.22
2022-08-05T22:33:15.172Z,7.68
2022-08-05T22:35:48.607Z,5.97
2022-08-05T22:38:19.628Z,6.78
2022-08-05T22:40:49.368Z,7.55
2022-08-05T22:43:37.432Z,6.18
2022-08-05T22:46:13.149Z,6.85
2022-08-05T22:48:43.843Z,6.87
2022-08-05T22:51:22.491Z,6.70
2022-08-05T22:53:51.068Z,7.72
2022-08-05T22:56:30.103Z,5.90
2022-08-05T22:59:04.170Z,6.03
2022-08-05T23:02:04.147Z,6.80
2022-08-05T23:04:32.626Z,7.82
2022-08-05T23:06:59.834Z,8.43
2022-08-05T23:09:57.198Z,7.13
2022-08-05T23:12:17.822Z,8.85
2022-08-05T23:14:45.247Z,5.70
2022-08-05T23:17:34.202Z,8.18
2022-08-05T23:20:16.350Z,8.65
2022-08-05T23:22:47.781Z,9.98
2022-08-05T23:25:52.764Z,7.22
2022-08-05T23:31:16.177Z,6.38
2022-08-05T23:34:03.879Z,8.05
2022-08-05T23:36:39.866Z,7.03
2022-08-05T23:39:17.097Z,5.75
2022-08-05T23:41:51.902Z,8.63
2022-08-05T23:44:19.753Z,6.35
2022-08-05T23:46:52.291Z,5.80
2022-08-05T23:49:23.775Z,7.75
2022-08-05T23:52:19.585Z,5.88
2022-08-05T23:54:49.374Z,9.90
2022-08-05T23:57:16.593Z,5.85
